Pennington, AL (36916)

6:39 AM CDT on July 03, 2015 (GMT -0500)
KALBUTLE3 | | Change Station
CLOSE
Current Station
Personal Weather Station
Location: Butler, AL
Elevation: 183 ft
Nearby Weather Stations

Elev 183 ft 32.10 °N, 88.20 °W | Updated 10 minutes ago

Mostly Cloudy
Mostly Cloudy
76.8 °F
Feels Like 78 °F
N
0.0
Wind Variable Wind from North
Gusts 0.0 mph

Today
High -- | Low -- °F
--% Chance of Precip.
Yesterday
High -- | Low -- °F
Precip. -- in
5:50 AM 8:02 PM
Full, 97% visible
Pressure 30.03 in
Visibility 10.0 miles
Clouds Overcast 1400 ft
Heat Index 78 °F
Dew Point 75 °F
Humidity 92%
Rainfall 0.00 in
Snow Depth Not available.
UV 0 out of 12
Pollen 3.00 out of 12
Air Quality Not available.
Flu Activity Not available.
METAR KNMM 031056Z AUTO 24006KT 10SM OVC014 25/22 A3001 RMK AO2 SLP168 T02500222

More Conditions Fewer Conditions

Pressure 30.03 in
Visibility 10.0 miles
Clouds Overcast 1400 ft
Heat Index 78 °F
Dew Point 75 °F
Humidity 92%
Rainfall 0.00 in
Snow Depth Not available.
UV 0 out of 12
Pollen 3.00 out of 12
Air Quality Not available.
Flu Activity Not available.
METAR KNMM 031056Z AUTO 24006KT 10SM OVC014 25/22 A3001 RMK AO2 SLP168 T02500222

More Conditions Fewer Conditions

10-Day Weather Forecast

×

Almanac

Astronomy

Jul. 03, 2015 Rise Set
Actual Time
Civil Twilight
Nautical Twilight
Astronomical Twilight
Moon
Length of Visible Light
Length of Day
Tomorrow will be .
, % of the Moon is Illuminated

Today's Extremes

State Highs State Lows

Community

WunderPhotos

Upload Photos

1,834,656 photos uploaded!

WunderBlogs® & News

Nearby

Air Quality

  Air Quality AQ Index Pollutant
Not available.

Snow Depth

Station Depth Elevation

Earthquake Activity

City Distance Mag. Time & Date
Minimum magnitude displayed is 2.5.

Coastal Water Temperatures

Place Temperature

Stations

Nearby Weather Stations

Station Location Temp. Windchill Dew Point Humidity Wind Precip. Elev Updated Type